Denali National Park, Alaska
Current Conditions -  °F | °C
As of 10:36 AM on Saturday 25 Oct 2014 (Local Time) from PAIN Reporting Station
Overcast Overcast  
Wind Chill: 14°   Ceiling: 2100
Heat Index: 14°   Visibility: 10mi
Dew Point: 10°   Wind: 0mph
Humidity: 86%   Direction: NA
Pressure: 29.89"   Gusts: NA
Location:  63.7326°N, 148.918°W
Report Text: PAIN 251836Z AUTO 00000KT 10SM OVC021 M10/M12 A2989 RMK AO1
Loading
Personal Weather Stations






























Interactive Weather Map
Tropical Storm Tracking
New forecast layout! Learn more

10-Day Weather Forecast

Advertisements
Track Severe Weather on mobile